sensor_id;sensor_type;location;lat;lon;timestamp;pressure;altitude;pressure_sealevel;temperature;humidity
39129;BME280;24864;49.940;19.770;2022-11-13T00:00:57;77451.44;;;-147.98;100.00
39129;BME280;24864;49.940;19.770;2022-11-13T00:03:28;77455.63;;;-147.98;100.00
39129;BME280;24864;49.940;19.770;2022-11-13T00:05:59;77459.78;;;-147.98;100.00
39129;BME280;24864;49.940;19.770;2022-11-13T00:08:27;77455.63;;;-147.98;100.00
39129;BME280;24864;49.940;19.770;2022-11-13T00:11:02;77441.06;;;-147.98;100.00
39129;BME280;24864;49.940;19.770;2022-11-13T00:13:30;77451.44;;;-147.98;100.00
39129;BME280;24864;49.940;19.770;2022-11-13T00:15:59;77455.63;;;-147.98;100.00
39129;BME280;24864;49.940;19.770;2022-11-13T00:18:28;77455.63;;;-147.98;100.00
39129;BME280;24864;49.940;19.770;2022-11-13T00:20:57;77447.28;;;-147.98;100.00
39129;BME280;24864;49.940;19.770;2022-11-13T00:23:30;77447.28;;;-147.98;100.00
39129;BME280;24864;49.940;19.770;2022-11-13T00:26:06;77459.78;;;-147.98;100.00
39129;BME280;24864;49.940;19.770;2022-11-13T00:28:34;77449.38;;;-147.98;100.00
39129;BME280;24864;49.940;19.770;2022-11-13T00:31:04;77449.38;;;-147.98;100.00
39129;BME280;24864;49.940;19.770;2022-11-13T00:33:32;77449.38;;;-147.98;100.00
39129;BME280;24864;49.940;19.770;2022-11-13T00:36:22;77438.97;;;-147.98;100.00
39129;BME280;24864;49.940;19.770;2022-11-13T00:38:52;77447.28;;;-147.98;100.00
39129;BME280;24864;49.940;19.770;2022-11-13T00:41:22;77455.63;;;-147.98;100.00
39129;BME280;24864;49.940;19.770;2022-11-13T00:43:51;77441.06;;;-147.98;100.00
39129;BME280;24864;49.940;19.770;2022-11-13T00:46:19;77418.19;;;-147.98;100.00
39129;BME280;24864;49.940;19.770;2022-11-13T00:48:46;77422.34;;;-147.98;100.00
39129;BME280;24864;49.940;19.770;2022-11-13T00:51:15;77432.75;;;-147.98;100.00
39129;BME280;24864;49.940;19.770;2022-11-13T00:53:44;77432.75;;;-147.98;100.00
39129;BME280;24864;49.940;19.770;2022-11-13T00:56:12;77418.19;;;-147.98;100.00
39129;BME280;24864;49.940;19.770;2022-11-13T00:58:42;77438.97;;;-147.98;100.00
39129;BME280;24864;49.940;19.770;2022-11-13T01:01:12;77430.66;;;-147.98;100.00
39129;BME280;24864;49.940;19.770;2022-11-13T01:03:42;77434.81;;;-147.98;100.00
39129;BME280;24864;49.940;19.770;2022-11-13T01:06:12;77434.81;;;-147.98;100.00
39129;BME280;24864;49.940;19.770;2022-11-13T01:08:40;77426.50;;;-147.98;100.00
39129;BME280;24864;49.940;19.770;2022-11-13T01:11:09;77447.28;;;-147.98;100.00
39129;BME280;24864;49.940;19.770;2022-11-13T01:13:38;77443.13;;;-147.98;100.00
39129;BME280;24864;49.940;19.770;2022-11-13T01:16:10;77451.44;;;-147.98;100.00
39129;BME280;24864;49.940;19.770;2022-11-13T01:18:38;77443.13;;;-147.98;100.00
39129;BME280;24864;49.940;19.770;2022-11-13T01:21:10;77438.97;;;-147.98;100.00
39129;BME280;24864;49.940;19.770;2022-11-13T01:23:40;77434.81;;;-147.98;100.00
39129;BME280;24864;49.940;19.770;2022-11-13T01:26:10;77438.97;;;-147.98;100.00
39129;BME280;24864;49.940;19.770;2022-11-13T01:28:39;77443.13;;;-147.98;100.00
39129;BME280;24864;49.940;19.770;2022-11-13T01:31:10;77447.28;;;-147.98;100.00
39129;BME280;24864;49.940;19.770;2022-11-13T01:33:39;77461.84;;;-147.98;100.00
39129;BME280;24864;49.940;19.770;2022-11-13T01:36:10;77447.28;;;-147.98;100.00
39129;BME280;24864;49.940;19.770;2022-11-13T01:38:38;77434.81;;;-147.98;100.00
39129;BME280;24864;49.940;19.770;2022-11-13T01:41:08;77430.66;;;-147.98;100.00
39129;BME280;24864;49.940;19.770;2022-11-13T01:43:47;77424.41;;;-147.98;100.00
39129;BME280;24864;49.940;19.770;2022-11-13T01:46:20;77422.34;;;-147.98;100.00
39129;BME280;24864;49.940;19.770;2022-11-13T01:48:51;77418.19;;;-147.98;100.00
39129;BME280;24864;49.940;19.770;2022-11-13T01:51:24;77428.56;;;-147.98;100.00
39129;BME280;24864;49.940;19.770;2022-11-13T01:53:54;77434.81;;;-147.98;100.00
39129;BME280;24864;49.940;19.770;2022-11-13T01:56:22;77430.66;;;-147.98;100.00
39129;BME280;24864;49.940;19.770;2022-11-13T01:58:53;77424.41;;;-147.98;100.00
39129;BME280;24864;49.940;19.770;2022-11-13T02:04:18;77457.69;;;-147.98;100.00
39129;BME280;24864;49.940;19.770;2022-11-13T02:06:50;77480.56;;;-147.98;100.00
39129;BME280;24864;49.940;19.770;2022-11-13T02:09:22;77476.41;;;-147.98;100.00
39129;BME280;24864;49.940;19.770;2022-11-13T02:11:51;77453.53;;;-147.98;100.00
39129;BME280;24864;49.940;19.770;2022-11-13T02:14:22;77459.78;;;-147.98;100.00
39129;BME280;24864;49.940;19.770;2022-11-13T02:16:56;77459.78;;;-147.98;100.00
39129;BME280;24864;49.940;19.770;2022-11-13T02:19:30;77453.53;;;-147.98;100.00
39129;BME280;24864;49.940;19.770;2022-11-13T02:22:06;77466.00;;;-147.98;100.00
39129;BME280;24864;49.940;19.770;2022-11-13T02:24:40;77474.34;;;-147.98;100.00
39129;BME280;24864;49.940;19.770;2022-11-13T02:27:15;77459.78;;;-147.98;100.00
39129;BME280;24864;49.940;19.770;2022-11-13T02:29:44;77449.38;;;-147.98;100.00
39129;BME280;24864;49.940;19.770;2022-11-13T02:32:13;77463.94;;;-147.98;100.00
39129;BME280;24864;49.940;19.770;2022-11-13T02:34:40;77497.22;;;-147.98;100.00
39129;BME280;24864;49.940;19.770;2022-11-13T02:37:09;77468.09;;;-147.98;100.00
39129;BME280;24864;49.940;19.770;2022-11-13T02:39:38;77461.84;;;-147.98;100.00
39129;BME280;24864;49.940;19.770;2022-11-13T02:42:06;77451.44;;;-147.98;100.00
39129;BME280;24864;49.940;19.770;2022-11-13T02:44:34;77443.13;;;-147.98;100.00
39129;BME280;24864;49.940;19.770;2022-11-13T02:47:02;77436.91;;;-147.98;100.00
39129;BME280;24864;49.940;19.770;2022-11-13T02:49:30;77438.97;;;-147.98;100.00
39129;BME280;24864;49.940;19.770;2022-11-13T02:51:58;77434.81;;;-147.98;100.00
39129;BME280;24864;49.940;19.770;2022-11-13T02:54:25;77434.81;;;-147.98;100.00
39129;BME280;24864;49.940;19.770;2022-11-13T02:56:55;77422.34;;;-147.98;100.00
39129;BME280;24864;49.940;19.770;2022-11-13T02:59:23;77430.66;;;-147.98;100.00
39129;BME280;24864;49.940;19.770;2022-11-13T03:01:51;77418.19;;;-147.98;100.00
39129;BME280;24864;49.940;19.770;2022-11-13T03:04:19;77428.56;;;-147.98;100.00
39129;BME280;24864;49.940;19.770;2022-11-13T03:06:47;77457.69;;;-147.98;100.00
39129;BME280;24864;49.940;19.770;2022-11-13T03:09:15;77451.44;;;-147.98;100.00
39129;BME280;24864;49.940;19.770;2022-11-13T03:11:43;77463.94;;;-147.98;100.00
39129;BME280;24864;49.940;19.770;2022-11-13T03:14:12;77447.28;;;-147.98;100.00
39129;BME280;24864;49.940;19.770;2022-11-13T03:16:40;77451.44;;;-147.98;100.00
39129;BME280;24864;49.940;19.770;2022-11-13T03:19:08;77447.28;;;-147.98;100.00
39129;BME280;24864;49.940;19.770;2022-11-13T03:21:36;77451.44;;;-147.98;100.00
39129;BME280;24864;49.940;19.770;2022-11-13T03:24:04;77459.78;;;-147.98;100.00
39129;BME280;24864;49.940;19.770;2022-11-13T03:26:32;77459.78;;;-147.98;100.00
39129;BME280;24864;49.940;19.770;2022-11-13T03:29:00;77463.94;;;-147.98;100.00
39129;BME280;24864;49.940;19.770;2022-11-13T03:31:30;77472.25;;;-147.98;100.00
39129;BME280;24864;49.940;19.770;2022-11-13T03:33:58;77476.41;;;-147.98;100.00
39129;BME280;24864;49.940;19.770;2022-11-13T03:36:26;77478.50;;;-147.98;100.00
39129;BME280;24864;49.940;19.770;2022-11-13T03:38:53;77480.56;;;-147.98;100.00
39129;BME280;24864;49.940;19.770;2022-11-13T03:41:22;77480.56;;;-147.98;100.00
39129;BME280;24864;49.940;19.770;2022-11-13T03:43:50;77480.56;;;-147.98;100.00
39129;BME280;24864;49.940;19.770;2022-11-13T03:46:18;77499.28;;;-147.98;100.00
39129;BME280;24864;49.940;19.770;2022-11-13T03:48:47;77501.38;;;-147.98;100.00
39129;BME280;24864;49.940;19.770;2022-11-13T03:51:15;77497.22;;;-147.98;100.00
39129;BME280;24864;49.940;19.770;2022-11-13T03:53:43;77497.22;;;-147.98;100.00
39129;BME280;24864;49.940;19.770;2022-11-13T03:56:11;77488.88;;;-147.98;100.00
39129;BME280;24864;49.940;19.770;2022-11-13T03:58:39;77484.72;;;-147.98;100.00
39129;BME280;24864;49.940;19.770;2022-11-13T04:01:14;77505.53;;;-147.98;100.00
39129;BME280;24864;49.940;19.770;2022-11-13T04:03:42;77505.53;;;-147.98;100.00
39129;BME280;24864;49.940;19.770;2022-11-13T04:06:11;77513.84;;;-147.98;100.00
39129;BME280;24864;49.940;19.770;2022-11-13T04:08:40;77513.84;;;-147.98;100.00
39129;BME280;24864;49.940;19.770;2022-11-13T04:11:09;77509.69;;;-147.98;100.00
39129;BME280;24864;49.940;19.770;2022-11-13T04:13:38;77503.44;;;-147.98;100.00
39129;BME280;24864;49.940;19.770;2022-11-13T04:16:06;77501.38;;;-147.98;100.00
39129;BME280;24864;49.940;19.770;2022-11-13T04:18:34;77509.69;;;-147.98;100.00
39129;BME280;24864;49.940;19.770;2022-11-13T04:21:04;77493.03;;;-147.98;100.00
39129;BME280;24864;49.940;19.770;2022-11-13T04:23:33;77505.53;;;-147.98;100.00
39129;BME280;24864;49.940;19.770;2022-11-13T04:26:01;77501.38;;;-147.98;100.00
39129;BME280;24864;49.940;19.770;2022-11-13T04:28:29;77511.75;;;-147.98;100.00
39129;BME280;24864;49.940;19.770;2022-11-13T04:30:57;77505.53;;;-147.98;100.00
39129;BME280;24864;49.940;19.770;2022-11-13T04:33:25;77511.75;;;-147.98;100.00
39129;BME280;24864;49.940;19.770;2022-11-13T04:35:53;77493.03;;;-147.98;100.00
39129;BME280;24864;49.940;19.770;2022-11-13T04:38:21;77501.38;;;-147.98;100.00
39129;BME280;24864;49.940;19.770;2022-11-13T04:40:50;77501.38;;;-147.98;100.00
39129;BME280;24864;49.940;19.770;2022-11-13T04:43:38;77518.00;;;-147.98;100.00
39129;BME280;24864;49.940;19.770;2022-11-13T04:46:06;77513.84;;;-147.98;100.00
39129;BME280;24864;49.940;19.770;2022-11-13T04:48:34;77513.84;;;-147.98;100.00
39129;BME280;24864;49.940;19.770;2022-11-13T04:51:02;77534.63;;;-147.98;100.00
39129;BME280;24864;49.940;19.770;2022-11-13T04:53:30;77530.47;;;-147.98;100.00
39129;BME280;24864;49.940;19.770;2022-11-13T04:55:59;77536.72;;;-147.98;100.00
39129;BME280;24864;49.940;19.770;2022-11-13T04:58:27;77538.78;;;-147.98;100.00
39129;BME280;24864;49.940;19.770;2022-11-13T05:00:56;77530.47;;;-147.98;100.00
39129;BME280;24864;49.940;19.770;2022-11-13T05:03:23;77534.63;;;-147.98;100.00
39129;BME280;24864;49.940;19.770;2022-11-13T05:05:51;77542.97;;;-147.98;100.00
39129;BME280;24864;49.940;19.770;2022-11-13T05:08:19;77547.13;;;-147.98;100.00
39129;BME280;24864;49.940;19.770;2022-11-13T05:10:47;77559.59;;;-147.98;100.00
39129;BME280;24864;49.940;19.770;2022-11-13T05:13:17;77574.16;;;-147.98;100.00
39129;BME280;24864;49.940;19.770;2022-11-13T05:15:44;77572.06;;;-147.98;100.00
39129;BME280;24864;49.940;19.770;2022-11-13T05:18:13;77567.91;;;-147.98;100.00
39129;BME280;24864;49.940;19.770;2022-11-13T05:20:41;77574.16;;;-147.98;100.00
39129;BME280;24864;49.940;19.770;2022-11-13T05:23:09;77572.06;;;-147.98;100.00
39129;BME280;24864;49.940;19.770;2022-11-13T05:25:36;77576.22;;;-147.98;100.00
39129;BME280;24864;49.940;19.770;2022-11-13T05:28:05;77572.06;;;-147.98;100.00
39129;BME280;24864;49.940;19.770;2022-11-13T05:30:34;77584.56;;;-147.98;100.00
39129;BME280;24864;49.940;19.770;2022-11-13T05:33:02;77588.72;;;-147.98;100.00
39129;BME280;24864;49.940;19.770;2022-11-13T05:35:30;77592.88;;;-147.98;100.00
39129;BME280;24864;49.940;19.770;2022-11-13T05:37:59;77588.72;;;-147.98;100.00
39129;BME280;24864;49.940;19.770;2022-11-13T05:40:27;77597.03;;;-147.98;100.00
39129;BME280;24864;49.940;19.770;2022-11-13T05:42:55;77597.03;;;-147.98;100.00
39129;BME280;24864;49.940;19.770;2022-11-13T05:45:23;77603.28;;;-147.98;100.00
39129;BME280;24864;49.940;19.770;2022-11-13T05:47:52;77607.44;;;-147.98;100.00
39129;BME280;24864;49.940;19.770;2022-11-13T05:50:20;77601.19;;;-147.98;100.00
39129;BME280;24864;49.940;19.770;2022-11-13T05:52:48;77597.03;;;-147.98;100.00
39129;BME280;24864;49.940;19.770;2022-11-13T05:55:16;77597.03;;;-147.98;100.00
39129;BME280;24864;49.940;19.770;2022-11-13T05:57:49;77601.19;;;-147.98;100.00
39129;BME280;24864;49.940;19.770;2022-11-13T06:00:17;77613.66;;;-147.98;100.00
39129;BME280;24864;49.940;19.770;2022-11-13T06:02:45;77626.16;;;-147.98;100.00
39129;BME280;24864;49.940;19.770;2022-11-13T06:05:15;77622.00;;;-147.98;100.00
39129;BME280;24864;49.940;19.770;2022-11-13T06:07:42;77622.00;;;-147.98;100.00
39129;BME280;24864;49.940;19.770;2022-11-13T06:10:10;77613.66;;;-147.98;100.00
39129;BME280;24864;49.940;19.770;2022-11-13T06:12:39;77613.66;;;-147.98;100.00
39129;BME280;24864;49.940;19.770;2022-11-13T06:15:07;77619.91;;;-147.98;100.00
39129;BME280;24864;49.940;19.770;2022-11-13T06:17:35;77613.66;;;-147.98;100.00
39129;BME280;24864;49.940;19.770;2022-11-13T06:20:03;77624.06;;;-147.98;100.00
39129;BME280;24864;49.940;19.770;2022-11-13T06:22:33;77609.50;;;-147.98;100.00
39129;BME280;24864;49.940;19.770;2022-11-13T06:25:01;77605.34;;;-147.98;100.00
39129;BME280;24864;49.940;19.770;2022-11-13T06:27:29;77605.34;;;-147.98;100.00
39129;BME280;24864;49.940;19.770;2022-11-13T06:29:57;77601.19;;;-147.98;100.00
39129;BME280;24864;49.940;19.770;2022-11-13T06:32:24;77613.66;;;-147.98;100.00
39129;BME280;24864;49.940;19.770;2022-11-13T06:34:52;77617.81;;;-147.98;100.00
39129;BME280;24864;49.940;19.770;2022-11-13T06:37:20;77609.50;;;-147.98;100.00
39129;BME280;24864;49.940;19.770;2022-11-13T06:39:49;77599.09;;;-147.98;100.00
39129;BME280;24864;49.940;19.770;2022-11-13T06:42:17;77601.19;;;-147.98;100.00
39129;BME280;24864;49.940;19.770;2022-11-13T06:44:45;77605.34;;;-147.98;100.00
39129;BME280;24864;49.940;19.770;2022-11-13T06:47:13;77601.19;;;-147.98;100.00
39129;BME280;24864;49.940;19.770;2022-11-13T06:49:41;77605.34;;;-147.98;100.00
39129;BME280;24864;49.940;19.770;2022-11-13T06:52:09;77605.34;;;-147.98;100.00
39129;BME280;24864;49.940;19.770;2022-11-13T06:54:37;77603.28;;;-147.98;100.00
39129;BME280;24864;49.940;19.770;2022-11-13T06:57:06;77613.66;;;-147.98;100.00
39129;BME280;24864;49.940;19.770;2022-11-13T06:59:34;77611.59;;;-147.98;100.00
39129;BME280;24864;49.940;19.770;2022-11-13T07:02:02;77605.34;;;-147.98;100.00
39129;BME280;24864;49.940;19.770;2022-11-13T07:04:30;77611.59;;;-147.98;100.00
39129;BME280;24864;49.940;19.770;2022-11-13T07:06:58;77613.66;;;-147.98;100.00
39129;BME280;24864;49.940;19.770;2022-11-13T07:09:26;77617.81;;;-147.98;100.00
39129;BME280;24864;49.940;19.770;2022-11-13T07:11:54;77617.81;;;-147.98;100.00
39129;BME280;24864;49.940;19.770;2022-11-13T07:14:24;77611.59;;;-147.98;100.00
39129;BME280;24864;49.940;19.770;2022-11-13T07:16:51;77605.34;;;-147.98;100.00
39129;BME280;24864;49.940;19.770;2022-11-13T07:19:35;77617.81;;;-147.98;100.00
39129;BME280;24864;49.940;19.770;2022-11-13T07:22:03;77615.75;;;-147.98;100.00
39129;BME280;24864;49.940;19.770;2022-11-13T07:24:31;77611.59;;;-147.98;100.00
39129;BME280;24864;49.940;19.770;2022-11-13T07:26:59;77609.50;;;-147.98;100.00
39129;BME280;24864;49.940;19.770;2022-11-13T07:29:28;77609.50;;;-147.98;100.00
39129;BME280;24864;49.940;19.770;2022-11-13T07:31:56;77590.78;;;-147.98;100.00
39129;BME280;24864;49.940;19.770;2022-11-13T07:34:24;77588.72;;;-147.98;100.00
39129;BME280;24864;49.940;19.770;2022-11-13T07:36:52;77582.47;;;-147.98;100.00
39129;BME280;24864;49.940;19.770;2022-11-13T07:39:20;77580.41;;;-147.98;100.00
39129;BME280;24864;49.940;19.770;2022-11-13T07:41:48;77572.06;;;-147.98;100.00
39129;BME280;24864;49.940;19.770;2022-11-13T07:44:16;77572.06;;;-147.98;100.00
39129;BME280;24864;49.940;19.770;2022-11-13T07:47:05;77578.31;;;-147.98;100.00
39129;BME280;24864;49.940;19.770;2022-11-13T07:49:33;77584.56;;;-147.98;100.00
39129;BME280;24864;49.940;19.770;2022-11-13T07:52:01;77580.41;;;-147.98;100.00
39129;BME280;24864;49.940;19.770;2022-11-13T07:54:29;77572.06;;;-147.98;100.00
39129;BME280;24864;49.940;19.770;2022-11-13T07:56:57;77576.22;;;-147.98;100.00
39129;BME280;24864;49.940;19.770;2022-11-13T07:59:24;77561.69;;;-147.98;100.00
39129;BME280;24864;49.940;19.770;2022-11-13T08:01:53;77555.44;;;-147.98;100.00
39129;BME280;24864;49.940;19.770;2022-11-13T08:04:22;77557.50;;;-147.98;100.00
39129;BME280;24864;49.940;19.770;2022-11-13T08:06:50;77557.50;;;-147.98;100.00
39129;BME280;24864;49.940;19.770;2022-11-13T08:09:18;77551.28;;;-147.98;100.00
39129;BME280;24864;49.940;19.770;2022-11-13T08:11:46;77557.50;;;-147.98;100.00
39129;BME280;24864;49.940;19.770;2022-11-13T08:14:14;77551.28;;;-147.98;100.00
39129;BME280;24864;49.940;19.770;2022-11-13T08:16:43;77555.44;;;-147.98;100.00
39129;BME280;24864;49.940;19.770;2022-11-13T08:19:11;77551.28;;;-147.98;100.00
39129;BME280;24864;49.940;19.770;2022-11-13T08:21:40;77559.59;;;-147.98;100.00
39129;BME280;24864;49.940;19.770;2022-11-13T08:24:08;77555.44;;;-147.98;100.00
39129;BME280;24864;49.940;19.770;2022-11-13T08:26:36;77561.69;;;-147.98;100.00
39129;BME280;24864;49.940;19.770;2022-11-13T08:29:04;77551.28;;;-147.98;100.00
39129;BME280;24864;49.940;19.770;2022-11-13T08:31:32;77547.13;;;-147.98;100.00
39129;BME280;24864;49.940;19.770;2022-11-13T08:34:00;77538.78;;;-147.98;100.00
39129;BME280;24864;49.940;19.770;2022-11-13T08:36:28;77540.88;;;-147.98;100.00
39129;BME280;24864;49.940;19.770;2022-11-13T08:38:58;77534.63;;;-147.98;100.00
39129;BME280;24864;49.940;19.770;2022-11-13T08:41:26;77530.47;;;-147.98;100.00
39129;BME280;24864;49.940;19.770;2022-11-13T08:43:53;77530.47;;;-147.98;100.00
39129;BME280;24864;49.940;19.770;2022-11-13T08:46:22;77526.31;;;-147.98;100.00
39129;BME280;24864;49.940;19.770;2022-11-13T08:48:49;77522.16;;;-147.98;100.00
39129;BME280;24864;49.940;19.770;2022-11-13T08:51:17;77518.00;;;-147.98;100.00
39129;BME280;24864;49.940;19.770;2022-11-13T08:53:46;77518.00;;;-147.98;100.00
39129;BME280;24864;49.940;19.770;2022-11-13T08:56:15;77505.53;;;-147.98;100.00
39129;BME280;24864;49.940;19.770;2022-11-13T08:58:43;77505.53;;;-147.98;100.00
39129;BME280;24864;49.940;19.770;2022-11-13T09:01:11;77509.69;;;-147.98;100.00
39129;BME280;24864;49.940;19.770;2022-11-13T09:03:39;77488.88;;;-147.98;100.00
39129;BME280;24864;49.940;19.770;2022-11-13T09:06:08;77484.72;;;-147.98;100.00
39129;BME280;24864;49.940;19.770;2022-11-13T09:08:36;77493.03;;;-147.98;100.00
39129;BME280;24864;49.940;19.770;2022-11-13T09:11:04;77478.50;;;-147.98;100.00
39129;BME280;24864;49.940;19.770;2022-11-13T09:13:34;77482.66;;;-147.98;100.00
39129;BME280;24864;49.940;19.770;2022-11-13T09:16:09;77463.94;;;-147.98;100.00
39129;BME280;24864;49.940;19.770;2022-11-13T09:18:37;77451.44;;;-147.98;100.00
39129;BME280;24864;49.940;19.770;2022-11-13T09:21:05;77461.84;;;-147.98;100.00
39129;BME280;24864;49.940;19.770;2022-11-13T09:23:33;77455.63;;;-147.98;100.00
39129;BME280;24864;49.940;19.770;2022-11-13T09:26:02;77436.91;;;-147.98;100.00
39129;BME280;24864;49.940;19.770;2022-11-13T09:28:30;77445.22;;;-147.98;100.00
39129;BME280;24864;49.940;19.770;2022-11-13T09:31:02;77434.81;;;-147.98;100.00
39129;BME280;24864;49.940;19.770;2022-11-13T09:33:30;77426.50;;;-147.98;100.00
39129;BME280;24864;49.940;19.770;2022-11-13T09:35:58;77422.34;;;-147.98;100.00
39129;BME280;24864;49.940;19.770;2022-11-13T09:38:26;77420.25;;;-147.98;100.00
39129;BME280;24864;49.940;19.770;2022-11-13T09:40:58;77426.50;;;-147.98;100.00
39129;BME280;24864;49.940;19.770;2022-11-13T09:43:33;77409.84;;;-147.98;100.00
39129;BME280;24864;49.940;19.770;2022-11-13T09:46:07;77397.38;;;-147.98;100.00
39129;BME280;24864;49.940;19.770;2022-11-13T09:48:41;77395.31;;;-147.98;100.00
39129;BME280;24864;49.940;19.770;2022-11-13T09:51:13;77397.38;;;-147.98;100.00
39129;BME280;24864;49.940;19.770;2022-11-13T09:53:41;77401.53;;;-147.98;100.00
39129;BME280;24864;49.940;19.770;2022-11-13T09:56:25;77384.91;;;-147.98;100.00
39129;BME280;24864;49.940;19.770;2022-11-13T09:59:01;77393.22;;;-147.98;100.00
39129;BME280;24864;49.940;19.770;2022-11-13T10:01:46;77374.50;;;-147.98;100.00
39129;BME280;24864;49.940;19.770;2022-11-13T10:04:21;77364.09;;;-147.98;100.00
39129;BME280;24864;49.940;19.770;2022-11-13T10:06:59;77353.72;;;-147.98;100.00
39129;BME280;24864;49.940;19.770;2022-11-13T10:09:35;77343.31;;;-147.98;100.00
39129;BME280;24864;49.940;19.770;2022-11-13T10:12:07;77337.06;;;-147.98;100.00
39129;BME280;24864;49.940;19.770;2022-11-13T10:14:39;77335.00;;;-147.98;100.00
39129;BME280;24864;49.940;19.770;2022-11-13T10:17:15;77318.34;;;-147.98;100.00
39129;BME280;24864;49.940;19.770;2022-11-13T10:19:52;77324.59;;;-147.98;100.00
39129;BME280;24864;49.940;19.770;2022-11-13T10:22:27;77312.13;;;-147.98;100.00
39129;BME280;24864;49.940;19.770;2022-11-13T10:25:08;77312.13;;;-147.98;100.00
39129;BME280;24864;49.940;19.770;2022-11-13T10:27:37;77293.41;;;-147.98;100.00
39129;BME280;24864;49.940;19.770;2022-11-13T10:33:30;77289.25;;;-147.98;100.00
39129;BME280;24864;49.940;19.770;2022-11-13T10:36:03;77285.09;;;-147.98;100.00
39129;BME280;24864;49.940;19.770;2022-11-13T10:38:37;77289.25;;;-147.98;100.00
39129;BME280;24864;49.940;19.770;2022-11-13T10:41:11;77285.09;;;-147.98;100.00
39129;BME280;24864;49.940;19.770;2022-11-13T10:43:50;77270.53;;;-147.98;100.00
39129;BME280;24864;49.940;19.770;2022-11-13T10:46:21;77258.06;;;-147.98;100.00
39129;BME280;24864;49.940;19.770;2022-11-13T10:48:51;77260.13;;;-147.98;100.00
39129;BME280;24864;49.940;19.770;2022-11-13T10:51:23;77249.72;;;-147.98;100.00
39129;BME280;24864;49.940;19.770;2022-11-13T10:53:53;77268.44;;;-147.98;100.00
39129;BME280;24864;49.940;19.770;2022-11-13T10:56:26;77255.97;;;-147.98;100.00
39129;BME280;24864;49.940;19.770;2022-11-13T10:59:00;77245.56;;;-147.98;100.00
39129;BME280;24864;49.940;19.770;2022-11-13T11:01:28;77249.72;;;-147.98;100.00
39129;BME280;24864;49.940;19.770;2022-11-13T11:03:58;77239.34;;;-147.98;100.00
39129;BME280;24864;49.940;19.770;2022-11-13T11:06:32;77237.25;;;-147.98;100.00
39129;BME280;24864;49.940;19.770;2022-11-13T11:09:23;77231.00;;;-147.98;100.00
39129;BME280;24864;49.940;19.770;2022-11-13T11:12:07;77218.53;;;-147.98;100.00
39129;BME280;24864;49.940;19.770;2022-11-13T11:15:00;77214.38;;;-147.98;100.00
39129;BME280;24864;49.940;19.770;2022-11-13T11:17:38;77201.91;;;-147.98;100.00
39129;BME280;24864;49.940;19.770;2022-11-13T11:20:19;77206.06;;;-147.98;100.00
39129;BME280;24864;49.940;19.770;2022-11-13T11:22:53;77199.81;;;-147.98;100.00
39129;BME280;24864;49.940;19.770;2022-11-13T11:25:30;77201.91;;;-147.98;100.00
39129;BME280;24864;49.940;19.770;2022-11-13T11:28:05;77214.38;;;-147.98;100.00
39129;BME280;24864;49.940;19.770;2022-11-13T11:30:41;77201.91;;;-147.98;100.00
39129;BME280;24864;49.940;19.770;2022-11-13T11:33:15;77181.09;;;-147.98;100.00
39129;BME280;24864;49.940;19.770;2022-11-13T11:35:53;77176.94;;;-147.98;100.00
39129;BME280;24864;49.940;19.770;2022-11-13T11:38:24;77210.22;;;-147.98;100.00
39129;BME280;24864;49.940;19.770;2022-11-13T11:40:57;77201.91;;;-147.98;100.00
39129;BME280;24864;49.940;19.770;2022-11-13T11:43:36;77191.50;;;-147.98;100.00
39129;BME280;24864;49.940;19.770;2022-11-13T11:46:10;77172.78;;;-147.98;100.00
39129;BME280;24864;49.940;19.770;2022-11-13T11:48:38;77152.00;;;-147.98;100.00
39129;BME280;24864;49.940;19.770;2022-11-13T11:51:14;77160.31;;;-147.98;100.00
39129;BME280;24864;49.940;19.770;2022-11-13T11:53:51;77141.59;;;-147.98;100.00
39129;BME280;24864;49.940;19.770;2022-11-13T11:56:26;77139.53;;;-147.98;100.00
39129;BME280;24864;49.940;19.770;2022-11-13T11:59:05;77120.81;;;-147.98;100.00
39129;BME280;24864;49.940;19.770;2022-11-13T12:01:54;77110.41;;;-147.98;100.00
39129;BME280;24864;49.940;19.770;2022-11-13T12:04:41;77106.25;;;-147.98;100.00
39129;BME280;24864;49.940;19.770;2022-11-13T12:07:25;77089.59;;;-147.98;100.00
39129;BME280;24864;49.940;19.770;2022-11-13T12:10:02;77077.13;;;-147.98;100.00
39129;BME280;24864;49.940;19.770;2022-11-13T12:12:43;77066.75;;;-147.98;100.00
39129;BME280;24864;49.940;19.770;2022-11-13T12:15:21;77075.06;;;-147.98;100.00
39129;BME280;24864;49.940;19.770;2022-11-13T12:17:59;77068.81;;;-147.98;100.00
39129;BME280;24864;49.940;19.770;2022-11-13T12:20:35;77081.28;;;-147.98;100.00
39129;BME280;24864;49.940;19.770;2022-11-13T12:23:17;77070.91;;;-147.98;100.00
39129;BME280;24864;49.940;19.770;2022-11-13T12:25:54;77070.91;;;-147.98;100.00
39129;BME280;24864;49.940;19.770;2022-11-13T12:28:32;77064.66;;;-147.98;100.00
39129;BME280;24864;49.940;19.770;2022-11-13T12:31:15;77052.19;;;-147.98;100.00
39129;BME280;24864;49.940;19.770;2022-11-13T12:33:52;77060.50;;;-147.98;100.00
39129;BME280;24864;49.940;19.770;2022-11-13T12:36:27;77048.03;;;-147.98;100.00
39129;BME280;24864;49.940;19.770;2022-11-13T12:39:03;77043.88;;;-147.98;100.00
39129;BME280;24864;49.940;19.770;2022-11-13T12:41:40;77029.31;;;-147.98;100.00
39129;BME280;24864;49.940;19.770;2022-11-13T12:44:23;77035.53;;;-147.98;100.00